Strona główna
METAR-TAF:

METAR-TAF

Lotnisko :

Le Touquet, Francja

Szerokość geograficzna: 50-30-53N, Długość geograficzna: 001-37-39E, wysokość: 6 m

Aktualna obserwacja pogody

Raport powstał 37 minut temu, godzina 02:30 UTC
Wiatr 5 kt od zachodnio-północny zachód, zmienny między zachód i północno-północny zachód
Temperatura 17°C
Wilgotność 77%
Ciśnienie 1018 hPa
Widzialność 10 km lub więcej
Rozproszone chmury na wysokości 4400 ft

METAR: LFAT 210230Z AUTO 30005KT 260V330 9999 SCT044 17/13 Q1018

czas: 05:07 (03:07 UTC)

Prognoza

Raport powstał 13 godziny i 7 minut temu, godzina 14:00 UTC
Prognoza ważna od 20 godzina 15 UTC do 20 godzina 24 UTC
Wiatr 12 kt od zachodnio-południowy zachód
Widzialność 10 km lub więcej
Przerywane chmury na wysokości 2000 ft
Przejściowo
od 20 godzina 15 UTC do 20 godzina 16 UTC
Przerywane chmury na wysokości 1200 ft

TAF: LFAT 201400Z 2015/2024 25012KT 9999 BKN020 TEMPO 2015/2016 BKN012

Obserwacja i prognoza pogody dla ponad 4000 lotnisk (raport METAR i TAF).

Dostępne stacje oznaczono żółtymi i czerwonymi punktami na mapie.

Najedź kursorem aby zobaczyć nazwę stacji.

Kliknij aby zobaczyć obserwacje i prognozy pogody.

Aby zmienić mapę: kliknij na zielony przycisk z czarnym krzyżykiem, aby powiększyć; na zielony przycisk z myślnikiem, aby pomniejszyć; na zielone strzałki, aby przejść do map sąsiednich.


METAR-TAF: